sensor_id;sensor_type;location;lat;lon;timestamp;P1;durP1;ratioP1;P2;durP2;ratioP2
70560;SDS011;58109;53.570;10.084;2022-08-20T00:00:04;21.97;;;16.17;;
70560;SDS011;58109;53.570;10.084;2022-08-20T00:02:37;22.40;;;15.57;;
70560;SDS011;58109;53.570;10.084;2022-08-20T00:05:04;23.10;;;14.60;;
70560;SDS011;58109;53.570;10.084;2022-08-20T00:07:29;21.53;;;15.03;;
70560;SDS011;58109;53.570;10.084;2022-08-20T00:09:55;22.17;;;14.63;;
70560;SDS011;58109;53.570;10.084;2022-08-20T00:12:20;24.20;;;15.20;;
70560;SDS011;58109;53.570;10.084;2022-08-20T00:14:46;23.67;;;15.23;;
70560;SDS011;58109;53.570;10.084;2022-08-20T00:17:16;20.23;;;14.57;;
70560;SDS011;58109;53.570;10.084;2022-08-20T00:19:44;20.63;;;13.87;;
70560;SDS011;58109;53.570;10.084;2022-08-20T00:22:09;17.40;;;12.40;;
70560;SDS011;58109;53.570;10.084;2022-08-20T00:24:35;18.73;;;11.17;;
70560;SDS011;58109;53.570;10.084;2022-08-20T00:27:07;19.27;;;10.67;;
70560;SDS011;58109;53.570;10.084;2022-08-20T00:29:37;14.40;;;10.40;;
70560;SDS011;58109;53.570;10.084;2022-08-20T00:32:03;13.00;;;9.10;;
70560;SDS011;58109;53.570;10.084;2022-08-20T00:34:33;17.10;;;11.10;;
70560;SDS011;58109;53.570;10.084;2022-08-20T00:37:01;14.60;;;9.40;;
70560;SDS011;58109;53.570;10.084;2022-08-20T00:39:31;13.33;;;8.50;;
70560;SDS011;58109;53.570;10.084;2022-08-20T00:41:59;38.33;;;21.33;;
70560;SDS011;58109;53.570;10.084;2022-08-20T00:44:24;11.20;;;8.17;;
70560;SDS011;58109;53.570;10.084;2022-08-20T00:46:55;20.10;;;11.30;;
70560;SDS011;58109;53.570;10.084;2022-08-20T00:49:29;14.10;;;8.13;;
70560;SDS011;58109;53.570;10.084;2022-08-20T00:54:31;22.33;;;14.40;;
70560;SDS011;58109;53.570;10.084;2022-08-20T00:57:07;12.13;;;7.60;;
70560;SDS011;58109;53.570;10.084;2022-08-20T00:59:37;16.40;;;8.60;;
70560;SDS011;58109;53.570;10.084;2022-08-20T01:02:05;12.43;;;7.70;;
70560;SDS011;58109;53.570;10.084;2022-08-20T01:04:38;18.00;;;8.43;;
70560;SDS011;58109;53.570;10.084;2022-08-20T01:07:06;11.17;;;7.90;;
70560;SDS011;58109;53.570;10.084;2022-08-20T01:09:39;9.73;;;7.93;;
70560;SDS011;58109;53.570;10.084;2022-08-20T01:12:05;14.93;;;6.83;;
70560;SDS011;58109;53.570;10.084;2022-08-20T01:14:31;12.13;;;7.20;;
70560;SDS011;58109;53.570;10.084;2022-08-20T01:16:59;13.00;;;6.70;;
70560;SDS011;58109;53.570;10.084;2022-08-20T01:19:28;9.83;;;6.60;;
70560;SDS011;58109;53.570;10.084;2022-08-20T01:21:58;8.17;;;6.33;;
70560;SDS011;58109;53.570;10.084;2022-08-20T01:24:33;9.47;;;6.90;;
70560;SDS011;58109;53.570;10.084;2022-08-20T01:27:06;13.60;;;6.40;;
70560;SDS011;58109;53.570;10.084;2022-08-20T01:29:37;10.47;;;6.57;;
70560;SDS011;58109;53.570;10.084;2022-08-20T01:32:04;7.50;;;6.13;;
70560;SDS011;58109;53.570;10.084;2022-08-20T01:34:32;10.50;;;5.90;;
70560;SDS011;58109;53.570;10.084;2022-08-20T01:36:57;7.50;;;6.10;;
70560;SDS011;58109;53.570;10.084;2022-08-20T01:39:26;13.73;;;7.33;;
70560;SDS011;58109;53.570;10.084;2022-08-20T01:41:56;12.67;;;6.60;;
70560;SDS011;58109;53.570;10.084;2022-08-20T01:44:39;9.27;;;8.10;;
70560;SDS011;58109;53.570;10.084;2022-08-20T01:47:28;8.43;;;7.33;;
70560;SDS011;58109;53.570;10.084;2022-08-20T01:50:00;11.90;;;7.80;;
70560;SDS011;58109;53.570;10.084;2022-08-20T01:55:00;8.47;;;6.83;;
70560;SDS011;58109;53.570;10.084;2022-08-20T01:57:28;7.90;;;6.43;;
70560;SDS011;58109;53.570;10.084;2022-08-20T02:00:03;11.97;;;7.37;;
70560;SDS011;58109;53.570;10.084;2022-08-20T02:02:33;13.50;;;6.43;;
70560;SDS011;58109;53.570;10.084;2022-08-20T02:04:58;12.47;;;7.40;;
70560;SDS011;58109;53.570;10.084;2022-08-20T02:07:26;11.37;;;7.20;;
70560;SDS011;58109;53.570;10.084;2022-08-20T02:09:53;15.63;;;7.33;;
70560;SDS011;58109;53.570;10.084;2022-08-20T02:12:19;9.03;;;6.80;;
70560;SDS011;58109;53.570;10.084;2022-08-20T02:14:48;14.30;;;6.90;;
70560;SDS011;58109;53.570;10.084;2022-08-20T02:17:18;11.63;;;6.40;;
70560;SDS011;58109;53.570;10.084;2022-08-20T02:19:49;8.50;;;6.23;;
70560;SDS011;58109;53.570;10.084;2022-08-20T02:24:57;7.33;;;6.00;;
70560;SDS011;58109;53.570;10.084;2022-08-20T02:27:23;11.20;;;6.27;;
70560;SDS011;58109;53.570;10.084;2022-08-20T02:29:50;9.13;;;6.70;;
70560;SDS011;58109;53.570;10.084;2022-08-20T02:32:17;8.70;;;6.00;;
70560;SDS011;58109;53.570;10.084;2022-08-20T02:34:46;8.10;;;5.50;;
70560;SDS011;58109;53.570;10.084;2022-08-20T02:37:14;13.67;;;6.60;;
70560;SDS011;58109;53.570;10.084;2022-08-20T02:39:44;7.97;;;6.10;;
70560;SDS011;58109;53.570;10.084;2022-08-20T02:42:10;8.77;;;6.00;;
70560;SDS011;58109;53.570;10.084;2022-08-20T02:44:38;15.67;;;6.20;;
70560;SDS011;58109;53.570;10.084;2022-08-20T02:47:06;12.07;;;5.50;;
70560;SDS011;58109;53.570;10.084;2022-08-20T02:49:34;11.47;;;6.87;;
70560;SDS011;58109;53.570;10.084;2022-08-20T02:52:00;9.00;;;6.20;;
70560;SDS011;58109;53.570;10.084;2022-08-20T02:54:25;11.13;;;7.80;;
70560;SDS011;58109;53.570;10.084;2022-08-20T02:56:51;12.37;;;6.37;;
70560;SDS011;58109;53.570;10.084;2022-08-20T02:59:16;9.80;;;6.30;;
70560;SDS011;58109;53.570;10.084;2022-08-20T03:01:42;6.93;;;5.60;;
70560;SDS011;58109;53.570;10.084;2022-08-20T03:04:10;6.80;;;5.50;;
70560;SDS011;58109;53.570;10.084;2022-08-20T03:06:35;6.70;;;5.40;;
70560;SDS011;58109;53.570;10.084;2022-08-20T03:09:03;7.83;;;5.47;;
70560;SDS011;58109;53.570;10.084;2022-08-20T03:11:32;9.03;;;5.30;;
70560;SDS011;58109;53.570;10.084;2022-08-20T03:13:58;9.60;;;6.40;;
70560;SDS011;58109;53.570;10.084;2022-08-20T03:16:28;8.60;;;5.17;;
70560;SDS011;58109;53.570;10.084;2022-08-20T03:18:54;8.00;;;5.97;;
70560;SDS011;58109;53.570;10.084;2022-08-20T03:21:19;6.10;;;5.50;;
70560;SDS011;58109;53.570;10.084;2022-08-20T03:23:45;8.77;;;5.30;;
70560;SDS011;58109;53.570;10.084;2022-08-20T03:26:12;7.10;;;5.50;;
70560;SDS011;58109;53.570;10.084;2022-08-20T03:28:41;8.27;;;5.23;;
70560;SDS011;58109;53.570;10.084;2022-08-20T03:31:07;14.93;;;7.50;;
70560;SDS011;58109;53.570;10.084;2022-08-20T03:33:35;12.40;;;5.73;;
70560;SDS011;58109;53.570;10.084;2022-08-20T03:36:03;8.70;;;6.47;;
70560;SDS011;58109;53.570;10.084;2022-08-20T03:38:29;10.27;;;5.90;;
70560;SDS011;58109;53.570;10.084;2022-08-20T03:40:55;14.40;;;6.27;;
70560;SDS011;58109;53.570;10.084;2022-08-20T03:43:23;13.03;;;6.13;;
70560;SDS011;58109;53.570;10.084;2022-08-20T03:45:51;6.20;;;5.10;;
70560;SDS011;58109;53.570;10.084;2022-08-20T03:48:19;14.00;;;5.70;;
70560;SDS011;58109;53.570;10.084;2022-08-20T03:50:48;8.63;;;5.10;;
70560;SDS011;58109;53.570;10.084;2022-08-20T03:53:14;9.30;;;5.40;;
70560;SDS011;58109;53.570;10.084;2022-08-20T03:55:44;9.77;;;7.30;;
70560;SDS011;58109;53.570;10.084;2022-08-20T03:58:13;9.23;;;5.93;;
70560;SDS011;58109;53.570;10.084;2022-08-20T04:00:40;8.43;;;5.40;;
70560;SDS011;58109;53.570;10.084;2022-08-20T04:03:07;6.67;;;5.13;;
70560;SDS011;58109;53.570;10.084;2022-08-20T04:05:33;7.67;;;5.50;;
70560;SDS011;58109;53.570;10.084;2022-08-20T04:08:00;9.00;;;5.63;;
70560;SDS011;58109;53.570;10.084;2022-08-20T04:10:29;12.27;;;5.87;;
70560;SDS011;58109;53.570;10.084;2022-08-20T04:12:58;9.13;;;6.93;;
70560;SDS011;58109;53.570;10.084;2022-08-20T04:15:23;9.87;;;7.00;;
70560;SDS011;58109;53.570;10.084;2022-08-20T04:17:49;13.10;;;7.53;;
70560;SDS011;58109;53.570;10.084;2022-08-20T04:20:18;16.97;;;11.17;;
70560;SDS011;58109;53.570;10.084;2022-08-20T04:22:47;20.33;;;11.00;;
70560;SDS011;58109;53.570;10.084;2022-08-20T04:25:19;18.57;;;10.30;;
70560;SDS011;58109;53.570;10.084;2022-08-20T04:27:49;18.37;;;10.13;;
70560;SDS011;58109;53.570;10.084;2022-08-20T04:30:16;24.97;;;13.87;;
70560;SDS011;58109;53.570;10.084;2022-08-20T04:32:43;21.00;;;12.13;;
70560;SDS011;58109;53.570;10.084;2022-08-20T04:35:09;20.60;;;13.43;;
70560;SDS011;58109;53.570;10.084;2022-08-20T04:37:40;27.97;;;12.83;;
70560;SDS011;58109;53.570;10.084;2022-08-20T04:40:10;23.63;;;13.33;;
70560;SDS011;58109;53.570;10.084;2022-08-20T04:43:00;20.93;;;12.73;;
70560;SDS011;58109;53.570;10.084;2022-08-20T04:45:31;21.30;;;12.43;;
70560;SDS011;58109;53.570;10.084;2022-08-20T04:48:02;23.50;;;12.30;;
70560;SDS011;58109;53.570;10.084;2022-08-20T04:50:30;21.53;;;11.20;;
70560;SDS011;58109;53.570;10.084;2022-08-20T04:53:05;16.10;;;11.40;;
70560;SDS011;58109;53.570;10.084;2022-08-20T04:55:35;21.10;;;11.10;;
70560;SDS011;58109;53.570;10.084;2022-08-20T04:58:07;19.80;;;11.93;;
70560;SDS011;58109;53.570;10.084;2022-08-20T05:00:39;20.07;;;12.03;;
70560;SDS011;58109;53.570;10.084;2022-08-20T05:03:06;22.17;;;11.70;;
70560;SDS011;58109;53.570;10.084;2022-08-20T05:05:34;21.00;;;12.00;;
70560;SDS011;58109;53.570;10.084;2022-08-20T05:08:00;17.97;;;10.70;;
70560;SDS011;58109;53.570;10.084;2022-08-20T05:10:26;25.03;;;12.93;;
70560;SDS011;58109;53.570;10.084;2022-08-20T05:13:01;24.20;;;12.00;;
70560;SDS011;58109;53.570;10.084;2022-08-20T05:15:29;21.97;;;11.40;;
70560;SDS011;58109;53.570;10.084;2022-08-20T05:18:02;21.73;;;11.50;;
70560;SDS011;58109;53.570;10.084;2022-08-20T05:20:30;24.07;;;12.83;;
70560;SDS011;58109;53.570;10.084;2022-08-20T05:23:08;22.23;;;13.43;;
70560;SDS011;58109;53.570;10.084;2022-08-20T05:25:34;19.73;;;12.57;;
70560;SDS011;58109;53.570;10.084;2022-08-20T05:28:07;20.00;;;12.23;;
70560;SDS011;58109;53.570;10.084;2022-08-20T05:30:36;26.63;;;14.40;;
70560;SDS011;58109;53.570;10.084;2022-08-20T05:33:06;22.03;;;13.57;;
70560;SDS011;58109;53.570;10.084;2022-08-20T05:35:37;25.50;;;14.33;;
70560;SDS011;58109;53.570;10.084;2022-08-20T05:38:06;20.43;;;13.47;;
70560;SDS011;58109;53.570;10.084;2022-08-20T05:40:32;25.60;;;15.03;;
70560;SDS011;58109;53.570;10.084;2022-08-20T05:42:58;30.63;;;15.77;;
70560;SDS011;58109;53.570;10.084;2022-08-20T05:45:26;26.27;;;14.67;;
70560;SDS011;58109;53.570;10.084;2022-08-20T05:47:54;23.13;;;14.30;;
70560;SDS011;58109;53.570;10.084;2022-08-20T05:50:19;24.20;;;13.73;;
70560;SDS011;58109;53.570;10.084;2022-08-20T05:52:44;25.23;;;14.00;;
70560;SDS011;58109;53.570;10.084;2022-08-20T05:55:10;21.60;;;13.97;;
70560;SDS011;58109;53.570;10.084;2022-08-20T05:57:39;22.60;;;13.13;;
70560;SDS011;58109;53.570;10.084;2022-08-20T06:00:08;20.20;;;13.57;;
70560;SDS011;58109;53.570;10.084;2022-08-20T06:02:51;21.97;;;13.10;;
70560;SDS011;58109;53.570;10.084;2022-08-20T06:05:35;28.90;;;14.47;;
70560;SDS011;58109;53.570;10.084;2022-08-20T06:08:02;31.97;;;15.57;;
70560;SDS011;58109;53.570;10.084;2022-08-20T06:10:29;28.53;;;14.77;;
70560;SDS011;58109;53.570;10.084;2022-08-20T06:12:54;30.77;;;15.80;;
70560;SDS011;58109;53.570;10.084;2022-08-20T06:15:24;22.53;;;15.20;;
70560;SDS011;58109;53.570;10.084;2022-08-20T06:17:49;22.77;;;14.87;;
70560;SDS011;58109;53.570;10.084;2022-08-20T06:20:15;18.43;;;13.20;;
70560;SDS011;58109;53.570;10.084;2022-08-20T06:22:40;21.77;;;15.07;;
70560;SDS011;58109;53.570;10.084;2022-08-20T06:25:08;23.30;;;12.43;;
70560;SDS011;58109;53.570;10.084;2022-08-20T06:27:36;23.40;;;13.47;;
70560;SDS011;58109;53.570;10.084;2022-08-20T06:30:03;19.50;;;12.47;;
70560;SDS011;58109;53.570;10.084;2022-08-20T06:32:28;19.93;;;12.67;;
70560;SDS011;58109;53.570;10.084;2022-08-20T06:34:54;21.57;;;14.43;;
70560;SDS011;58109;53.570;10.084;2022-08-20T06:37:20;21.57;;;12.90;;
70560;SDS011;58109;53.570;10.084;2022-08-20T06:39:49;21.23;;;13.10;;
70560;SDS011;58109;53.570;10.084;2022-08-20T06:42:17;16.90;;;13.30;;
70560;SDS011;58109;53.570;10.084;2022-08-20T06:44:44;21.20;;;11.40;;
70560;SDS011;58109;53.570;10.084;2022-08-20T06:47:14;19.37;;;12.90;;
70560;SDS011;58109;53.570;10.084;2022-08-20T06:49:41;19.53;;;13.47;;
70560;SDS011;58109;53.570;10.084;2022-08-20T06:52:06;21.10;;;11.83;;
70560;SDS011;58109;53.570;10.084;2022-08-20T06:54:34;22.50;;;12.10;;
70560;SDS011;58109;53.570;10.084;2022-08-20T06:57:00;16.47;;;11.20;;
70560;SDS011;58109;53.570;10.084;2022-08-20T06:59:28;16.23;;;11.10;;
70560;SDS011;58109;53.570;10.084;2022-08-20T07:01:54;17.40;;;12.20;;
70560;SDS011;58109;53.570;10.084;2022-08-20T07:04:20;22.73;;;12.43;;
70560;SDS011;58109;53.570;10.084;2022-08-20T07:06:47;20.40;;;11.77;;
70560;SDS011;58109;53.570;10.084;2022-08-20T07:09:15;19.10;;;9.60;;
70560;SDS011;58109;53.570;10.084;2022-08-20T07:11:40;18.87;;;11.13;;
70560;SDS011;58109;53.570;10.084;2022-08-20T07:14:06;17.43;;;9.93;;
70560;SDS011;58109;53.570;10.084;2022-08-20T07:16:31;14.93;;;9.87;;
70560;SDS011;58109;53.570;10.084;2022-08-20T07:18:57;18.83;;;9.70;;
70560;SDS011;58109;53.570;10.084;2022-08-20T07:21:22;18.63;;;9.20;;
70560;SDS011;58109;53.570;10.084;2022-08-20T07:23:48;19.50;;;8.37;;
70560;SDS011;58109;53.570;10.084;2022-08-20T07:26:16;13.10;;;7.70;;
70560;SDS011;58109;53.570;10.084;2022-08-20T07:28:42;12.70;;;7.60;;
70560;SDS011;58109;53.570;10.084;2022-08-20T07:31:10;14.80;;;7.60;;
70560;SDS011;58109;53.570;10.084;2022-08-20T07:33:56;16.53;;;7.80;;
70560;SDS011;58109;53.570;10.084;2022-08-20T07:36:21;7.77;;;6.33;;
70560;SDS011;58109;53.570;10.084;2022-08-20T07:38:49;12.40;;;6.47;;
70560;SDS011;58109;53.570;10.084;2022-08-20T07:41:20;12.67;;;6.53;;
70560;SDS011;58109;53.570;10.084;2022-08-20T07:43:46;10.00;;;6.80;;
70560;SDS011;58109;53.570;10.084;2022-08-20T07:46:13;13.97;;;7.43;;
70560;SDS011;58109;53.570;10.084;2022-08-20T07:48:47;11.43;;;8.13;;
70560;SDS011;58109;53.570;10.084;2022-08-20T07:51:19;11.20;;;6.20;;
70560;SDS011;58109;53.570;10.084;2022-08-20T07:53:46;10.47;;;6.30;;
70560;SDS011;58109;53.570;10.084;2022-08-20T07:56:13;7.00;;;5.50;;
70560;SDS011;58109;53.570;10.084;2022-08-20T07:58:41;9.10;;;6.67;;
70560;SDS011;58109;53.570;10.084;2022-08-20T08:01:13;10.93;;;5.80;;
70560;SDS011;58109;53.570;10.084;2022-08-20T08:03:42;6.73;;;5.50;;
70560;SDS011;58109;53.570;10.084;2022-08-20T08:06:09;9.60;;;5.20;;
70560;SDS011;58109;53.570;10.084;2022-08-20T08:08:38;10.20;;;5.13;;
70560;SDS011;58109;53.570;10.084;2022-08-20T08:11:07;8.90;;;4.67;;
70560;SDS011;58109;53.570;10.084;2022-08-20T08:13:38;9.47;;;4.80;;
70560;SDS011;58109;53.570;10.084;2022-08-20T08:16:05;10.77;;;4.70;;
70560;SDS011;58109;53.570;10.084;2022-08-20T08:18:36;8.30;;;4.80;;
70560;SDS011;58109;53.570;10.084;2022-08-20T08:21:06;9.63;;;5.50;;
70560;SDS011;58109;53.570;10.084;2022-08-20T08:23:32;13.60;;;5.50;;
70560;SDS011;58109;53.570;10.084;2022-08-20T08:26:01;12.53;;;5.47;;
70560;SDS011;58109;53.570;10.084;2022-08-20T08:28:26;5.83;;;4.30;;
70560;SDS011;58109;53.570;10.084;2022-08-20T08:30:53;10.63;;;3.60;;
70560;SDS011;58109;53.570;10.084;2022-08-20T08:33:23;9.50;;;3.70;;
70560;SDS011;58109;53.570;10.084;2022-08-20T08:35:53;7.67;;;3.53;;
70560;SDS011;58109;53.570;10.084;2022-08-20T08:38:20;7.60;;;3.37;;
70560;SDS011;58109;53.570;10.084;2022-08-20T08:40:47;11.30;;;4.10;;
70560;SDS011;58109;53.570;10.084;2022-08-20T08:43:13;8.73;;;3.30;;
70560;SDS011;58109;53.570;10.084;2022-08-20T08:45:43;6.50;;;3.90;;
70560;SDS011;58109;53.570;10.084;2022-08-20T08:48:19;8.20;;;3.87;;
70560;SDS011;58109;53.570;10.084;2022-08-20T08:50:46;6.27;;;3.30;;
70560;SDS011;58109;53.570;10.084;2022-08-20T08:53:23;15.37;;;4.13;;
70560;SDS011;58109;53.570;10.084;2022-08-20T08:55:53;10.93;;;3.53;;
70560;SDS011;58109;53.570;10.084;2022-08-20T08:58:21;12.40;;;3.87;;
70560;SDS011;58109;53.570;10.084;2022-08-20T09:00:51;5.83;;;3.10;;
70560;SDS011;58109;53.570;10.084;2022-08-20T09:03:27;8.43;;;3.90;;
70560;SDS011;58109;53.570;10.084;2022-08-20T09:05:56;9.90;;;3.20;;
70560;SDS011;58109;53.570;10.084;2022-08-20T09:08:26;7.40;;;3.13;;
70560;SDS011;58109;53.570;10.084;2022-08-20T09:10:59;11.43;;;2.90;;
70560;SDS011;58109;53.570;10.084;2022-08-20T09:13:29;5.07;;;2.43;;
70560;SDS011;58109;53.570;10.084;2022-08-20T09:15:56;9.53;;;2.60;;
70560;SDS011;58109;53.570;10.084;2022-08-20T09:18:22;5.70;;;2.40;;
70560;SDS011;58109;53.570;10.084;2022-08-20T09:20:50;3.87;;;2.47;;
70560;SDS011;58109;53.570;10.084;2022-08-20T09:23:15;8.10;;;2.50;;
70560;SDS011;58109;53.570;10.084;2022-08-20T09:25:40;4.13;;;2.30;;
70560;SDS011;58109;53.570;10.084;2022-08-20T09:28:07;13.60;;;2.93;;
70560;SDS011;58109;53.570;10.084;2022-08-20T09:30:32;6.70;;;2.57;;
70560;SDS011;58109;53.570;10.084;2022-08-20T09:32:58;3.70;;;2.43;;
70560;SDS011;58109;53.570;10.084;2022-08-20T09:35:24;9.03;;;2.80;;
70560;SDS011;58109;53.570;10.084;2022-08-20T09:37:50;6.50;;;3.10;;
70560;SDS011;58109;53.570;10.084;2022-08-20T09:40:16;8.47;;;2.87;;
70560;SDS011;58109;53.570;10.084;2022-08-20T09:42:44;12.77;;;3.00;;
70560;SDS011;58109;53.570;10.084;2022-08-20T09:45:14;10.43;;;2.73;;
70560;SDS011;58109;53.570;10.084;2022-08-20T09:47:42;11.17;;;2.73;;
70560;SDS011;58109;53.570;10.084;2022-08-20T09:50:08;16.03;;;2.60;;
70560;SDS011;58109;53.570;10.084;2022-08-20T09:52:37;16.13;;;3.20;;
70560;SDS011;58109;53.570;10.084;2022-08-20T09:55:18;12.37;;;2.67;;
70560;SDS011;58109;53.570;10.084;2022-08-20T09:57:52;7.90;;;2.57;;
70560;SDS011;58109;53.570;10.084;2022-08-20T10:00:18;6.37;;;2.57;;
70560;SDS011;58109;53.570;10.084;2022-08-20T10:02:46;13.03;;;3.00;;
70560;SDS011;58109;53.570;10.084;2022-08-20T10:05:12;11.73;;;3.23;;
70560;SDS011;58109;53.570;10.084;2022-08-20T10:07:40;10.33;;;2.43;;
70560;SDS011;58109;53.570;10.084;2022-08-20T10:10:06;15.07;;;2.70;;
70560;SDS011;58109;53.570;10.084;2022-08-20T10:12:35;9.00;;;2.63;;
70560;SDS011;58109;53.570;10.084;2022-08-20T10:15:00;10.83;;;2.80;;
70560;SDS011;58109;53.570;10.084;2022-08-20T10:17:26;13.23;;;2.67;;
70560;SDS011;58109;53.570;10.084;2022-08-20T10:19:51;10.23;;;2.97;;
70560;SDS011;58109;53.570;10.084;2022-08-20T10:22:19;9.00;;;2.73;;
70560;SDS011;58109;53.570;10.084;2022-08-20T10:24:44;12.23;;;3.00;;
70560;SDS011;58109;53.570;10.084;2022-08-20T10:27:09;10.20;;;2.50;;
70560;SDS011;58109;53.570;10.084;2022-08-20T10:29:35;18.80;;;2.77;;
70560;SDS011;58109;53.570;10.084;2022-08-20T10:32:08;9.10;;;2.97;;
70560;SDS011;58109;53.570;10.084;2022-08-20T10:34:39;14.20;;;2.70;;
70560;SDS011;58109;53.570;10.084;2022-08-20T10:37:08;11.00;;;3.03;;
70560;SDS011;58109;53.570;10.084;2022-08-20T10:39:34;10.23;;;3.23;;
70560;SDS011;58109;53.570;10.084;2022-08-20T10:42:04;11.20;;;2.47;;
70560;SDS011;58109;53.570;10.084;2022-08-20T10:44:32;11.63;;;2.97;;
70560;SDS011;58109;53.570;10.084;2022-08-20T10:47:12;13.53;;;4.10;;
70560;SDS011;58109;53.570;10.084;2022-08-20T10:49:44;18.43;;;3.97;;
70560;SDS011;58109;53.570;10.084;2022-08-20T10:52:09;17.83;;;5.57;;
70560;SDS011;58109;53.570;10.084;2022-08-20T10:54:35;15.97;;;4.30;;
70560;SDS011;58109;53.570;10.084;2022-08-20T10:57:01;20.37;;;3.77;;
70560;SDS011;58109;53.570;10.084;2022-08-20T10:59:27;11.70;;;5.00;;
70560;SDS011;58109;53.570;10.084;2022-08-20T11:01:55;19.70;;;4.80;;
70560;SDS011;58109;53.570;10.084;2022-08-20T11:04:20;12.07;;;4.20;;
70560;SDS011;58109;53.570;10.084;2022-08-20T11:06:48;21.97;;;4.33;;
70560;SDS011;58109;53.570;10.084;2022-08-20T11:09:13;11.10;;;2.60;;
70560;SDS011;58109;53.570;10.084;2022-08-20T11:11:39;18.70;;;3.97;;
70560;SDS011;58109;53.570;10.084;2022-08-20T11:14:04;26.27;;;6.23;;
70560;SDS011;58109;53.570;10.084;2022-08-20T11:16:31;12.83;;;4.53;;
70560;SDS011;58109;53.570;10.084;2022-08-20T11:19:02;9.43;;;3.20;;
70560;SDS011;58109;53.570;10.084;2022-08-20T11:21:27;15.87;;;3.20;;
70560;SDS011;58109;53.570;10.084;2022-08-20T11:23:55;17.17;;;3.27;;
70560;SDS011;58109;53.570;10.084;2022-08-20T11:26:23;9.87;;;2.60;;
70560;SDS011;58109;53.570;10.084;2022-08-20T11:28:51;7.13;;;2.30;;
70560;SDS011;58109;53.570;10.084;2022-08-20T11:31:17;13.13;;;2.90;;
70560;SDS011;58109;53.570;10.084;2022-08-20T11:33:42;15.40;;;3.37;;
70560;SDS011;58109;53.570;10.084;2022-08-20T11:36:07;20.10;;;4.93;;
70560;SDS011;58109;53.570;10.084;2022-08-20T11:38:35;19.03;;;7.20;;
70560;SDS011;58109;53.570;10.084;2022-08-20T11:41:06;13.50;;;3.90;;
70560;SDS011;58109;53.570;10.084;2022-08-20T11:43:33;9.27;;;2.77;;
70560;SDS011;58109;53.570;10.084;2022-08-20T11:45:59;8.73;;;2.50;;
70560;SDS011;58109;53.570;10.084;2022-08-20T11:48:29;14.53;;;2.77;;
70560;SDS011;58109;53.570;10.084;2022-08-20T11:50:54;5.30;;;2.20;;
70560;SDS011;58109;53.570;10.084;2022-08-20T11:53:20;9.03;;;2.50;;
70560;SDS011;58109;53.570;10.084;2022-08-20T11:55:47;9.43;;;2.50;;
70560;SDS011;58109;53.570;10.084;2022-08-20T11:58:15;10.80;;;2.23;;
70560;SDS011;58109;53.570;10.084;2022-08-20T12:00:43;13.50;;;2.93;;
70560;SDS011;58109;53.570;10.084;2022-08-20T12:03:11;9.73;;;2.20;;
70560;SDS011;58109;53.570;10.084;2022-08-20T12:05:40;10.73;;;2.03;;
70560;SDS011;58109;53.570;10.084;2022-08-20T12:08:06;17.50;;;2.83;;
70560;SDS011;58109;53.570;10.084;2022-08-20T12:10:32;10.53;;;2.20;;
70560;SDS011;58109;53.570;10.084;2022-08-20T12:12:57;16.37;;;2.63;;
70560;SDS011;58109;53.570;10.084;2022-08-20T12:15:25;11.17;;;2.83;;
70560;SDS011;58109;53.570;10.084;2022-08-20T12:17:51;8.40;;;2.03;;
70560;SDS011;58109;53.570;10.084;2022-08-20T12:20:17;16.33;;;2.60;;
70560;SDS011;58109;53.570;10.084;2022-08-20T12:22:43;24.57;;;9.77;;
70560;SDS011;58109;53.570;10.084;2022-08-20T12:25:13;22.93;;;9.20;;
70560;SDS011;58109;53.570;10.084;2022-08-20T12:27:39;10.80;;;2.90;;
70560;SDS011;58109;53.570;10.084;2022-08-20T12:30:06;13.37;;;2.50;;
70560;SDS011;58109;53.570;10.084;2022-08-20T12:32:38;10.07;;;2.00;;
70560;SDS011;58109;53.570;10.084;2022-08-20T12:35:04;14.63;;;2.37;;
70560;SDS011;58109;53.570;10.084;2022-08-20T12:37:35;21.67;;;3.10;;
70560;SDS011;58109;53.570;10.084;2022-08-20T12:40:02;13.83;;;2.10;;
70560;SDS011;58109;53.570;10.084;2022-08-20T12:42:29;7.40;;;1.97;;
70560;SDS011;58109;53.570;10.084;2022-08-20T12:44:54;10.10;;;2.03;;
70560;SDS011;58109;53.570;10.084;2022-08-20T12:50:11;5.53;;;1.40;;
70560;SDS011;58109;53.570;10.084;2022-08-20T12:52:36;12.03;;;1.90;;
70560;SDS011;58109;53.570;10.084;2022-08-20T12:55:02;13.53;;;2.10;;
70560;SDS011;58109;53.570;10.084;2022-08-20T12:59:55;7.27;;;1.80;;
70560;SDS011;58109;53.570;10.084;2022-08-20T13:02:26;5.37;;;1.63;;
70560;SDS011;58109;53.570;10.084;2022-08-20T13:04:57;5.13;;;1.43;;
70560;SDS011;58109;53.570;10.084;2022-08-20T13:07:22;10.40;;;2.80;;
70560;SDS011;58109;53.570;10.084;2022-08-20T13:09:52;18.77;;;4.90;;
70560;SDS011;58109;53.570;10.084;2022-08-20T13:12:17;22.47;;;5.80;;
70560;SDS011;58109;53.570;10.084;2022-08-20T13:14:43;9.27;;;2.10;;
70560;SDS011;58109;53.570;10.084;2022-08-20T13:17:08;21.80;;;7.67;;
70560;SDS011;58109;53.570;10.084;2022-08-20T13:19:34;16.80;;;4.73;;
70560;SDS011;58109;53.570;10.084;2022-08-20T13:22:03;12.83;;;4.20;;
70560;SDS011;58109;53.570;10.084;2022-08-20T13:24:29;11.00;;;3.47;;
70560;SDS011;58109;53.570;10.084;2022-08-20T13:27:02;23.27;;;4.23;;
70560;SDS011;58109;53.570;10.084;2022-08-20T13:29:28;7.53;;;2.33;;
70560;SDS011;58109;53.570;10.084;2022-08-20T13:31:54;14.83;;;3.70;;
70560;SDS011;58109;53.570;10.084;2022-08-20T13:34:19;7.87;;;2.30;;
70560;SDS011;58109;53.570;10.084;2022-08-20T13:36:45;11.90;;;3.10;;
70560;SDS011;58109;53.570;10.084;2022-08-20T13:39:12;13.83;;;1.40;;
70560;SDS011;58109;53.570;10.084;2022-08-20T13:41:38;18.17;;;2.00;;
70560;SDS011;58109;53.570;10.084;2022-08-20T13:44:03;6.97;;;1.70;;
70560;SDS011;58109;53.570;10.084;2022-08-20T13:46:29;14.50;;;1.70;;
70560;SDS011;58109;53.570;10.084;2022-08-20T13:48:54;13.53;;;1.93;;
70560;SDS011;58109;53.570;10.084;2022-08-20T13:51:20;11.30;;;2.07;;
70560;SDS011;58109;53.570;10.084;2022-08-20T13:53:47;8.43;;;1.60;;
70560;SDS011;58109;53.570;10.084;2022-08-20T13:56:13;4.43;;;1.80;;
70560;SDS011;58109;53.570;10.084;2022-08-20T13:58:38;6.20;;;1.40;;
70560;SDS011;58109;53.570;10.084;2022-08-20T14:01:03;6.80;;;1.50;;
70560;SDS011;58109;53.570;10.084;2022-08-20T14:03:29;16.53;;;1.93;;
70560;SDS011;58109;53.570;10.084;2022-08-20T14:05:57;12.10;;;1.60;;
70560;SDS011;58109;53.570;10.084;2022-08-20T14:08:24;12.23;;;1.80;;
70560;SDS011;58109;53.570;10.084;2022-08-20T14:10:49;7.63;;;1.70;;
70560;SDS011;58109;53.570;10.084;2022-08-20T14:13:22;9.43;;;1.50;;
70560;SDS011;58109;53.570;10.084;2022-08-20T14:15:51;10.47;;;1.90;;
70560;SDS011;58109;53.570;10.084;2022-08-20T14:18:16;10.07;;;1.80;;
70560;SDS011;58109;53.570;10.084;2022-08-20T14:20:44;6.83;;;1.70;;
70560;SDS011;58109;53.570;10.084;2022-08-20T14:23:10;9.93;;;1.57;;
70560;SDS011;58109;53.570;10.084;2022-08-20T14:25:35;23.87;;;1.97;;
70560;SDS011;58109;53.570;10.084;2022-08-20T14:28:08;11.10;;;1.80;;
70560;SDS011;58109;53.570;10.084;2022-08-20T14:30:36;9.57;;;2.00;;
70560;SDS011;58109;53.570;10.084;2022-08-20T14:33:01;3.87;;;1.53;;
70560;SDS011;58109;53.570;10.084;2022-08-20T14:35:26;6.83;;;1.47;;
70560;SDS011;58109;53.570;10.084;2022-08-20T14:37:54;9.37;;;1.37;;
70560;SDS011;58109;53.570;10.084;2022-08-20T14:40:25;8.83;;;1.80;;